sensor_id;sensor_type;location;lat;lon;timestamp;P1;durP1;ratioP1;P2;durP2;ratioP2
6825;SDS011;3451;52.476;13.316;2024-03-29T00:01:28;1.30;;;0.40;;
6825;SDS011;3451;52.476;13.316;2024-03-29T00:03:53;2.23;;;0.60;;
6825;SDS011;3451;52.476;13.316;2024-03-29T00:06:19;2.17;;;0.87;;
6825;SDS011;3451;52.476;13.316;2024-03-29T00:08:44;2.37;;;0.80;;
6825;SDS011;3451;52.476;13.316;2024-03-29T00:11:09;1.90;;;0.70;;
6825;SDS011;3451;52.476;13.316;2024-03-29T00:13:35;3.77;;;0.80;;
6825;SDS011;3451;52.476;13.316;2024-03-29T00:16:00;1.60;;;0.70;;
6825;SDS011;3451;52.476;13.316;2024-03-29T00:18:26;2.70;;;1.10;;
6825;SDS011;3451;52.476;13.316;2024-03-29T00:20:51;1.47;;;0.70;;
6825;SDS011;3451;52.476;13.316;2024-03-29T00:23:16;1.73;;;0.70;;
6825;SDS011;3451;52.476;13.316;2024-03-29T00:25:42;1.10;;;0.57;;
6825;SDS011;3451;52.476;13.316;2024-03-29T00:28:08;2.37;;;0.60;;
6825;SDS011;3451;52.476;13.316;2024-03-29T00:30:33;1.33;;;0.60;;
6825;SDS011;3451;52.476;13.316;2024-03-29T00:32:58;3.47;;;0.70;;
6825;SDS011;3451;52.476;13.316;2024-03-29T00:35:24;1.90;;;0.80;;
6825;SDS011;3451;52.476;13.316;2024-03-29T00:37:49;2.97;;;0.87;;
6825;SDS011;3451;52.476;13.316;2024-03-29T00:40:15;2.33;;;0.90;;
6825;SDS011;3451;52.476;13.316;2024-03-29T00:42:40;1.67;;;0.77;;
6825;SDS011;3451;52.476;13.316;2024-03-29T00:45:06;1.90;;;0.70;;
6825;SDS011;3451;52.476;13.316;2024-03-29T00:47:31;1.50;;;0.87;;
6825;SDS011;3451;52.476;13.316;2024-03-29T00:49:57;2.23;;;0.60;;
6825;SDS011;3451;52.476;13.316;2024-03-29T00:52:23;3.73;;;0.93;;
6825;SDS011;3451;52.476;13.316;2024-03-29T00:54:48;2.40;;;0.80;;
6825;SDS011;3451;52.476;13.316;2024-03-29T00:57:15;1.23;;;0.67;;
6825;SDS011;3451;52.476;13.316;2024-03-29T00:59:40;2.53;;;0.90;;
6825;SDS011;3451;52.476;13.316;2024-03-29T01:02:08;3.63;;;0.70;;
6825;SDS011;3451;52.476;13.316;2024-03-29T01:04:34;0.97;;;0.70;;
6825;SDS011;3451;52.476;13.316;2024-03-29T01:06:59;2.40;;;1.07;;
6825;SDS011;3451;52.476;13.316;2024-03-29T01:09:24;2.60;;;0.87;;
6825;SDS011;3451;52.476;13.316;2024-03-29T01:11:50;2.23;;;0.87;;
6825;SDS011;3451;52.476;13.316;2024-03-29T01:14:15;4.53;;;0.80;;
6825;SDS011;3451;52.476;13.316;2024-03-29T01:16:41;1.93;;;0.93;;
6825;SDS011;3451;52.476;13.316;2024-03-29T01:19:06;1.90;;;0.97;;
6825;SDS011;3451;52.476;13.316;2024-03-29T01:21:31;3.03;;;0.90;;
6825;SDS011;3451;52.476;13.316;2024-03-29T01:23:56;1.70;;;0.93;;
6825;SDS011;3451;52.476;13.316;2024-03-29T01:26:22;2.40;;;0.90;;
6825;SDS011;3451;52.476;13.316;2024-03-29T01:28:47;1.70;;;0.80;;
6825;SDS011;3451;52.476;13.316;2024-03-29T01:31:12;2.87;;;1.10;;
6825;SDS011;3451;52.476;13.316;2024-03-29T01:33:38;1.70;;;0.90;;
6825;SDS011;3451;52.476;13.316;2024-03-29T01:36:06;1.40;;;0.80;;
6825;SDS011;3451;52.476;13.316;2024-03-29T01:38:31;2.50;;;1.07;;
6825;SDS011;3451;52.476;13.316;2024-03-29T01:40:57;3.03;;;0.97;;
6825;SDS011;3451;52.476;13.316;2024-03-29T01:43:23;3.47;;;1.37;;
6825;SDS011;3451;52.476;13.316;2024-03-29T01:45:49;2.03;;;1.13;;
6825;SDS011;3451;52.476;13.316;2024-03-29T01:48:16;2.20;;;1.10;;
6825;SDS011;3451;52.476;13.316;2024-03-29T01:50:42;4.10;;;1.33;;
6825;SDS011;3451;52.476;13.316;2024-03-29T01:53:08;3.53;;;1.40;;
6825;SDS011;3451;52.476;13.316;2024-03-29T01:55:33;3.10;;;1.50;;
6825;SDS011;3451;52.476;13.316;2024-03-29T01:57:59;1.80;;;1.27;;
6825;SDS011;3451;52.476;13.316;2024-03-29T02:00:24;2.03;;;1.47;;
6825;SDS011;3451;52.476;13.316;2024-03-29T02:02:51;2.60;;;1.40;;
6825;SDS011;3451;52.476;13.316;2024-03-29T02:05:16;3.47;;;1.43;;
6825;SDS011;3451;52.476;13.316;2024-03-29T02:07:41;2.70;;;1.43;;
6825;SDS011;3451;52.476;13.316;2024-03-29T02:10:09;3.43;;;1.40;;
6825;SDS011;3451;52.476;13.316;2024-03-29T02:12:35;2.27;;;1.30;;
6825;SDS011;3451;52.476;13.316;2024-03-29T02:15:01;2.00;;;1.30;;
6825;SDS011;3451;52.476;13.316;2024-03-29T02:17:27;2.50;;;1.53;;
6825;SDS011;3451;52.476;13.316;2024-03-29T02:19:53;2.00;;;1.40;;
6825;SDS011;3451;52.476;13.316;2024-03-29T02:22:18;2.80;;;1.57;;
6825;SDS011;3451;52.476;13.316;2024-03-29T02:24:45;3.00;;;1.70;;
6825;SDS011;3451;52.476;13.316;2024-03-29T02:27:10;2.43;;;1.70;;
6825;SDS011;3451;52.476;13.316;2024-03-29T02:29:36;3.50;;;1.70;;
6825;SDS011;3451;52.476;13.316;2024-03-29T02:32:04;3.47;;;1.80;;
6825;SDS011;3451;52.476;13.316;2024-03-29T02:34:30;4.63;;;1.70;;
6825;SDS011;3451;52.476;13.316;2024-03-29T02:36:55;2.30;;;1.80;;
6825;SDS011;3451;52.476;13.316;2024-03-29T02:39:22;4.00;;;1.80;;
6825;SDS011;3451;52.476;13.316;2024-03-29T02:41:47;2.40;;;1.77;;
6825;SDS011;3451;52.476;13.316;2024-03-29T02:44:13;4.90;;;2.00;;
6825;SDS011;3451;52.476;13.316;2024-03-29T02:46:41;3.73;;;2.03;;
6825;SDS011;3451;52.476;13.316;2024-03-29T02:49:06;3.20;;;2.00;;
6825;SDS011;3451;52.476;13.316;2024-03-29T02:51:31;2.10;;;1.70;;
6825;SDS011;3451;52.476;13.316;2024-03-29T02:53:57;3.53;;;2.00;;
6825;SDS011;3451;52.476;13.316;2024-03-29T02:56:22;2.83;;;2.00;;
6825;SDS011;3451;52.476;13.316;2024-03-29T02:58:48;3.87;;;1.90;;
6825;SDS011;3451;52.476;13.316;2024-03-29T03:01:14;4.50;;;2.07;;
6825;SDS011;3451;52.476;13.316;2024-03-29T03:03:39;7.93;;;2.00;;
6825;SDS011;3451;52.476;13.316;2024-03-29T03:06:05;3.60;;;1.80;;
6825;SDS011;3451;52.476;13.316;2024-03-29T03:08:30;5.97;;;2.40;;
6825;SDS011;3451;52.476;13.316;2024-03-29T03:11:15;4.13;;;2.60;;
6825;SDS011;3451;52.476;13.316;2024-03-29T03:13:40;4.10;;;2.13;;
6825;SDS011;3451;52.476;13.316;2024-03-29T03:16:06;3.20;;;2.00;;
6825;SDS011;3451;52.476;13.316;2024-03-29T03:18:31;4.00;;;2.03;;
6825;SDS011;3451;52.476;13.316;2024-03-29T03:20:57;4.53;;;2.03;;
6825;SDS011;3451;52.476;13.316;2024-03-29T03:23:23;3.30;;;2.07;;
6825;SDS011;3451;52.476;13.316;2024-03-29T03:25:58;3.63;;;2.17;;
6825;SDS011;3451;52.476;13.316;2024-03-29T03:28:24;3.87;;;1.90;;
6825;SDS011;3451;52.476;13.316;2024-03-29T03:30:50;2.57;;;1.87;;
6825;SDS011;3451;52.476;13.316;2024-03-29T03:33:15;4.00;;;2.10;;
6825;SDS011;3451;52.476;13.316;2024-03-29T03:35:41;3.53;;;1.90;;
6825;SDS011;3451;52.476;13.316;2024-03-29T03:38:07;3.50;;;1.83;;
6825;SDS011;3451;52.476;13.316;2024-03-29T03:40:33;3.57;;;2.07;;
6825;SDS011;3451;52.476;13.316;2024-03-29T03:42:59;5.23;;;2.20;;
6825;SDS011;3451;52.476;13.316;2024-03-29T03:45:24;3.03;;;1.90;;
6825;SDS011;3451;52.476;13.316;2024-03-29T03:47:49;3.33;;;1.87;;
6825;SDS011;3451;52.476;13.316;2024-03-29T03:50:15;4.43;;;2.13;;
6825;SDS011;3451;52.476;13.316;2024-03-29T03:52:40;4.43;;;2.60;;
6825;SDS011;3451;52.476;13.316;2024-03-29T03:55:05;3.20;;;1.97;;
6825;SDS011;3451;52.476;13.316;2024-03-29T03:57:31;4.57;;;2.10;;
6825;SDS011;3451;52.476;13.316;2024-03-29T03:59:56;5.00;;;1.70;;
6825;SDS011;3451;52.476;13.316;2024-03-29T04:02:21;4.57;;;2.00;;
6825;SDS011;3451;52.476;13.316;2024-03-29T04:04:47;3.03;;;1.80;;
6825;SDS011;3451;52.476;13.316;2024-03-29T04:07:13;3.87;;;1.70;;
6825;SDS011;3451;52.476;13.316;2024-03-29T04:09:38;2.53;;;1.87;;
6825;SDS011;3451;52.476;13.316;2024-03-29T04:12:04;3.23;;;1.70;;
6825;SDS011;3451;52.476;13.316;2024-03-29T04:14:29;3.97;;;1.83;;
6825;SDS011;3451;52.476;13.316;2024-03-29T04:16:54;4.07;;;1.80;;
6825;SDS011;3451;52.476;13.316;2024-03-29T04:19:20;3.77;;;1.70;;
6825;SDS011;3451;52.476;13.316;2024-03-29T04:21:45;3.20;;;1.83;;
6825;SDS011;3451;52.476;13.316;2024-03-29T04:24:10;5.57;;;1.80;;
6825;SDS011;3451;52.476;13.316;2024-03-29T04:26:36;3.20;;;1.63;;
6825;SDS011;3451;52.476;13.316;2024-03-29T04:29:02;3.40;;;1.80;;
6825;SDS011;3451;52.476;13.316;2024-03-29T04:31:27;3.43;;;1.47;;
6825;SDS011;3451;52.476;13.316;2024-03-29T04:33:53;3.33;;;1.70;;
6825;SDS011;3451;52.476;13.316;2024-03-29T04:36:19;4.30;;;1.80;;
6825;SDS011;3451;52.476;13.316;2024-03-29T04:38:44;1.90;;;1.50;;
6825;SDS011;3451;52.476;13.316;2024-03-29T04:41:09;4.77;;;1.53;;
6825;SDS011;3451;52.476;13.316;2024-03-29T04:43:35;2.43;;;1.70;;
6825;SDS011;3451;52.476;13.316;2024-03-29T04:46:10;4.80;;;1.63;;
6825;SDS011;3451;52.476;13.316;2024-03-29T04:48:36;2.37;;;1.80;;
6825;SDS011;3451;52.476;13.316;2024-03-29T04:51:02;4.43;;;1.60;;
6825;SDS011;3451;52.476;13.316;2024-03-29T04:53:27;3.07;;;1.40;;
6825;SDS011;3451;52.476;13.316;2024-03-29T04:55:53;2.77;;;1.57;;
6825;SDS011;3451;52.476;13.316;2024-03-29T04:58:19;4.10;;;1.60;;
6825;SDS011;3451;52.476;13.316;2024-03-29T05:00:44;2.83;;;1.63;;
6825;SDS011;3451;52.476;13.316;2024-03-29T05:03:09;3.73;;;1.67;;
6825;SDS011;3451;52.476;13.316;2024-03-29T05:05:35;3.73;;;1.43;;
6825;SDS011;3451;52.476;13.316;2024-03-29T05:08:00;2.67;;;1.50;;
6825;SDS011;3451;52.476;13.316;2024-03-29T05:10:26;6.53;;;1.60;;
6825;SDS011;3451;52.476;13.316;2024-03-29T05:12:51;2.73;;;1.47;;
6825;SDS011;3451;52.476;13.316;2024-03-29T05:15:17;3.57;;;1.40;;
6825;SDS011;3451;52.476;13.316;2024-03-29T05:17:42;3.10;;;1.50;;
6825;SDS011;3451;52.476;13.316;2024-03-29T05:20:08;2.27;;;1.27;;
6825;SDS011;3451;52.476;13.316;2024-03-29T05:22:34;3.10;;;1.47;;
6825;SDS011;3451;52.476;13.316;2024-03-29T05:24:59;2.17;;;1.60;;
6825;SDS011;3451;52.476;13.316;2024-03-29T05:27:25;2.37;;;1.50;;
6825;SDS011;3451;52.476;13.316;2024-03-29T05:29:50;2.50;;;1.50;;
6825;SDS011;3451;52.476;13.316;2024-03-29T05:32:15;3.37;;;1.40;;
6825;SDS011;3451;52.476;13.316;2024-03-29T05:34:41;6.67;;;1.63;;
6825;SDS011;3451;52.476;13.316;2024-03-29T05:37:06;3.43;;;1.50;;
6825;SDS011;3451;52.476;13.316;2024-03-29T05:39:33;2.63;;;1.27;;
6825;SDS011;3451;52.476;13.316;2024-03-29T05:41:58;4.10;;;1.40;;
6825;SDS011;3451;52.476;13.316;2024-03-29T05:44:23;4.77;;;1.40;;
6825;SDS011;3451;52.476;13.316;2024-03-29T05:46:49;3.00;;;1.23;;
6825;SDS011;3451;52.476;13.316;2024-03-29T05:49:14;3.07;;;1.23;;
6825;SDS011;3451;52.476;13.316;2024-03-29T05:51:40;3.07;;;1.17;;
6825;SDS011;3451;52.476;13.316;2024-03-29T05:54:06;3.90;;;1.20;;
6825;SDS011;3451;52.476;13.316;2024-03-29T05:56:32;3.43;;;1.53;;
6825;SDS011;3451;52.476;13.316;2024-03-29T05:58:57;4.40;;;1.50;;
6825;SDS011;3451;52.476;13.316;2024-03-29T06:01:23;3.17;;;1.23;;
6825;SDS011;3451;52.476;13.316;2024-03-29T06:03:49;2.13;;;1.27;;
6825;SDS011;3451;52.476;13.316;2024-03-29T06:06:17;2.27;;;1.10;;
6825;SDS011;3451;52.476;13.316;2024-03-29T06:08:43;4.33;;;1.33;;
6825;SDS011;3451;52.476;13.316;2024-03-29T06:11:08;4.03;;;1.53;;
6825;SDS011;3451;52.476;13.316;2024-03-29T06:13:34;2.37;;;1.40;;
6825;SDS011;3451;52.476;13.316;2024-03-29T06:16:18;2.10;;;1.40;;
6825;SDS011;3451;52.476;13.316;2024-03-29T06:19:02;2.33;;;1.57;;
6825;SDS011;3451;52.476;13.316;2024-03-29T06:21:27;2.37;;;1.07;;
6825;SDS011;3451;52.476;13.316;2024-03-29T06:23:53;2.10;;;1.03;;
6825;SDS011;3451;52.476;13.316;2024-03-29T06:26:18;3.30;;;1.40;;
6825;SDS011;3451;52.476;13.316;2024-03-29T06:28:43;2.00;;;1.37;;
6825;SDS011;3451;52.476;13.316;2024-03-29T06:31:09;3.87;;;1.50;;
6825;SDS011;3451;52.476;13.316;2024-03-29T06:33:34;3.63;;;1.50;;
6825;SDS011;3451;52.476;13.316;2024-03-29T06:35:59;2.17;;;1.20;;
6825;SDS011;3451;52.476;13.316;2024-03-29T06:38:25;4.47;;;1.47;;
6825;SDS011;3451;52.476;13.316;2024-03-29T06:40:50;1.37;;;0.90;;
6825;SDS011;3451;52.476;13.316;2024-03-29T06:43:15;4.67;;;1.30;;
6825;SDS011;3451;52.476;13.316;2024-03-29T06:45:41;2.80;;;1.20;;
6825;SDS011;3451;52.476;13.316;2024-03-29T06:48:09;3.07;;;1.30;;
6825;SDS011;3451;52.476;13.316;2024-03-29T06:50:35;4.43;;;1.20;;
6825;SDS011;3451;52.476;13.316;2024-03-29T06:53:00;2.70;;;1.13;;
6825;SDS011;3451;52.476;13.316;2024-03-29T06:55:26;3.67;;;1.40;;
6825;SDS011;3451;52.476;13.316;2024-03-29T06:57:51;3.40;;;1.17;;
6825;SDS011;3451;52.476;13.316;2024-03-29T07:00:17;2.57;;;1.20;;
6825;SDS011;3451;52.476;13.316;2024-03-29T07:02:42;3.97;;;1.70;;
6825;SDS011;3451;52.476;13.316;2024-03-29T07:05:08;2.77;;;1.47;;
6825;SDS011;3451;52.476;13.316;2024-03-29T07:07:36;3.00;;;1.50;;
6825;SDS011;3451;52.476;13.316;2024-03-29T07:10:02;4.97;;;1.23;;
6825;SDS011;3451;52.476;13.316;2024-03-29T07:12:27;2.97;;;1.30;;
6825;SDS011;3451;52.476;13.316;2024-03-29T07:14:53;3.03;;;1.13;;
6825;SDS011;3451;52.476;13.316;2024-03-29T07:17:18;3.13;;;1.20;;
6825;SDS011;3451;52.476;13.316;2024-03-29T07:19:43;3.57;;;1.40;;
6825;SDS011;3451;52.476;13.316;2024-03-29T07:22:09;2.47;;;1.20;;
6825;SDS011;3451;52.476;13.316;2024-03-29T07:24:35;3.43;;;1.27;;
6825;SDS011;3451;52.476;13.316;2024-03-29T07:27:00;2.90;;;1.20;;
6825;SDS011;3451;52.476;13.316;2024-03-29T07:29:25;1.73;;;1.13;;
6825;SDS011;3451;52.476;13.316;2024-03-29T07:31:51;2.37;;;1.00;;
6825;SDS011;3451;52.476;13.316;2024-03-29T07:34:16;2.70;;;0.90;;
6825;SDS011;3451;52.476;13.316;2024-03-29T07:36:42;2.90;;;1.00;;
6825;SDS011;3451;52.476;13.316;2024-03-29T07:39:07;4.90;;;1.20;;
6825;SDS011;3451;52.476;13.316;2024-03-29T07:41:33;3.20;;;1.10;;
6825;SDS011;3451;52.476;13.316;2024-03-29T07:43:58;2.57;;;1.27;;
6825;SDS011;3451;52.476;13.316;2024-03-29T07:46:34;2.70;;;1.03;;
6825;SDS011;3451;52.476;13.316;2024-03-29T07:49:00;2.30;;;1.00;;
6825;SDS011;3451;52.476;13.316;2024-03-29T07:51:25;2.10;;;1.10;;
6825;SDS011;3451;52.476;13.316;2024-03-29T07:53:51;3.93;;;1.30;;
6825;SDS011;3451;52.476;13.316;2024-03-29T07:56:16;2.27;;;1.20;;
6825;SDS011;3451;52.476;13.316;2024-03-29T07:58:42;3.00;;;1.53;;
6825;SDS011;3451;52.476;13.316;2024-03-29T08:01:07;3.00;;;1.20;;
6825;SDS011;3451;52.476;13.316;2024-03-29T08:03:33;4.83;;;1.13;;
6825;SDS011;3451;52.476;13.316;2024-03-29T08:06:00;3.40;;;1.40;;
6825;SDS011;3451;52.476;13.316;2024-03-29T08:08:25;2.90;;;1.30;;
6825;SDS011;3451;52.476;13.316;2024-03-29T08:10:52;5.43;;;1.30;;
6825;SDS011;3451;52.476;13.316;2024-03-29T08:13:18;2.90;;;1.40;;
6825;SDS011;3451;52.476;13.316;2024-03-29T08:15:45;4.63;;;1.50;;
6825;SDS011;3451;52.476;13.316;2024-03-29T08:18:11;4.00;;;1.73;;
6825;SDS011;3451;52.476;13.316;2024-03-29T08:20:36;5.67;;;1.77;;
6825;SDS011;3451;52.476;13.316;2024-03-29T08:23:02;4.37;;;1.13;;
6825;SDS011;3451;52.476;13.316;2024-03-29T08:25:28;3.23;;;1.30;;
6825;SDS011;3451;52.476;13.316;2024-03-29T08:27:53;3.43;;;1.20;;
6825;SDS011;3451;52.476;13.316;2024-03-29T08:30:26;2.83;;;1.27;;
6825;SDS011;3451;52.476;13.316;2024-03-29T08:32:56;2.77;;;1.23;;
6825;SDS011;3451;52.476;13.316;2024-03-29T08:35:22;4.50;;;1.40;;
6825;SDS011;3451;52.476;13.316;2024-03-29T08:37:47;3.77;;;1.47;;
6825;SDS011;3451;52.476;13.316;2024-03-29T08:40:15;3.70;;;1.30;;
6825;SDS011;3451;52.476;13.316;2024-03-29T08:42:40;3.20;;;1.20;;
6825;SDS011;3451;52.476;13.316;2024-03-29T08:45:06;5.67;;;1.37;;
6825;SDS011;3451;52.476;13.316;2024-03-29T08:47:33;2.67;;;1.23;;
6825;SDS011;3451;52.476;13.316;2024-03-29T08:49:59;2.97;;;1.40;;
6825;SDS011;3451;52.476;13.316;2024-03-29T08:52:25;2.13;;;1.00;;
6825;SDS011;3451;52.476;13.316;2024-03-29T08:54:50;2.33;;;1.00;;
6825;SDS011;3451;52.476;13.316;2024-03-29T08:57:15;2.70;;;1.10;;
6825;SDS011;3451;52.476;13.316;2024-03-29T08:59:41;5.70;;;1.30;;
6825;SDS011;3451;52.476;13.316;2024-03-29T09:02:06;3.30;;;1.40;;
6825;SDS011;3451;52.476;13.316;2024-03-29T09:04:32;4.27;;;1.50;;
6825;SDS011;3451;52.476;13.316;2024-03-29T09:06:59;3.57;;;1.27;;
6825;SDS011;3451;52.476;13.316;2024-03-29T09:09:25;2.70;;;1.10;;
6825;SDS011;3451;52.476;13.316;2024-03-29T09:11:51;2.40;;;1.20;;
6825;SDS011;3451;52.476;13.316;2024-03-29T09:14:16;2.87;;;1.10;;
6825;SDS011;3451;52.476;13.316;2024-03-29T09:16:41;7.33;;;1.20;;
6825;SDS011;3451;52.476;13.316;2024-03-29T09:19:07;2.03;;;1.00;;
6825;SDS011;3451;52.476;13.316;2024-03-29T09:21:32;3.60;;;1.23;;
6825;SDS011;3451;52.476;13.316;2024-03-29T09:23:57;1.80;;;1.10;;
6825;SDS011;3451;52.476;13.316;2024-03-29T09:26:23;3.83;;;1.20;;
6825;SDS011;3451;52.476;13.316;2024-03-29T09:28:48;4.00;;;1.37;;
6825;SDS011;3451;52.476;13.316;2024-03-29T09:31:14;3.20;;;1.10;;
6825;SDS011;3451;52.476;13.316;2024-03-29T09:33:39;1.80;;;1.00;;
6825;SDS011;3451;52.476;13.316;2024-03-29T09:36:04;3.23;;;1.03;;
6825;SDS011;3451;52.476;13.316;2024-03-29T09:38:30;3.33;;;1.00;;
6825;SDS011;3451;52.476;13.316;2024-03-29T09:40:59;2.37;;;0.83;;
6825;SDS011;3451;52.476;13.316;2024-03-29T09:43:28;1.60;;;0.83;;
6825;SDS011;3451;52.476;13.316;2024-03-29T09:45:54;2.70;;;1.00;;
6825;SDS011;3451;52.476;13.316;2024-03-29T09:48:19;2.00;;;0.93;;
6825;SDS011;3451;52.476;13.316;2024-03-29T09:50:46;2.10;;;1.00;;
6825;SDS011;3451;52.476;13.316;2024-03-29T09:53:12;3.10;;;1.10;;
6825;SDS011;3451;52.476;13.316;2024-03-29T09:55:38;1.80;;;1.00;;
6825;SDS011;3451;52.476;13.316;2024-03-29T09:58:05;2.53;;;1.00;;
6825;SDS011;3451;52.476;13.316;2024-03-29T10:00:30;2.60;;;1.00;;
6825;SDS011;3451;52.476;13.316;2024-03-29T10:02:56;2.37;;;1.00;;
6825;SDS011;3451;52.476;13.316;2024-03-29T10:05:25;3.60;;;1.10;;
6825;SDS011;3451;52.476;13.316;2024-03-29T10:07:52;2.57;;;1.00;;
6825;SDS011;3451;52.476;13.316;2024-03-29T10:10:17;2.03;;;0.90;;
6825;SDS011;3451;52.476;13.316;2024-03-29T10:12:43;1.50;;;1.00;;
6825;SDS011;3451;52.476;13.316;2024-03-29T10:15:09;3.27;;;0.93;;
6825;SDS011;3451;52.476;13.316;2024-03-29T10:17:39;2.07;;;1.10;;
6825;SDS011;3451;52.476;13.316;2024-03-29T10:20:05;3.27;;;1.47;;
6825;SDS011;3451;52.476;13.316;2024-03-29T10:22:35;2.67;;;1.20;;
6825;SDS011;3451;52.476;13.316;2024-03-29T10:25:01;1.20;;;0.90;;
6825;SDS011;3451;52.476;13.316;2024-03-29T10:27:26;1.83;;;0.90;;
6825;SDS011;3451;52.476;13.316;2024-03-29T10:29:55;1.93;;;0.93;;
6825;SDS011;3451;52.476;13.316;2024-03-29T10:32:20;2.13;;;1.00;;
6825;SDS011;3451;52.476;13.316;2024-03-29T10:34:48;3.17;;;1.13;;
6825;SDS011;3451;52.476;13.316;2024-03-29T10:37:13;2.03;;;0.80;;
6825;SDS011;3451;52.476;13.316;2024-03-29T10:39:44;1.70;;;1.00;;
6825;SDS011;3451;52.476;13.316;2024-03-29T10:42:10;4.10;;;1.00;;
6825;SDS011;3451;52.476;13.316;2024-03-29T10:44:37;2.50;;;1.10;;
6825;SDS011;3451;52.476;13.316;2024-03-29T10:47:03;2.43;;;1.00;;
6825;SDS011;3451;52.476;13.316;2024-03-29T10:49:29;2.10;;;0.90;;
6825;SDS011;3451;52.476;13.316;2024-03-29T10:51:55;2.53;;;1.10;;
6825;SDS011;3451;52.476;13.316;2024-03-29T10:54:24;1.87;;;1.07;;
6825;SDS011;3451;52.476;13.316;2024-03-29T10:56:52;2.93;;;0.97;;
6825;SDS011;3451;52.476;13.316;2024-03-29T10:59:21;1.23;;;1.07;;
6825;SDS011;3451;52.476;13.316;2024-03-29T11:01:49;4.40;;;1.00;;
6825;SDS011;3451;52.476;13.316;2024-03-29T11:04:18;3.13;;;1.27;;
6825;SDS011;3451;52.476;13.316;2024-03-29T11:06:46;1.53;;;0.97;;
6825;SDS011;3451;52.476;13.316;2024-03-29T11:09:13;2.13;;;1.10;;
6825;SDS011;3451;52.476;13.316;2024-03-29T11:11:40;2.30;;;1.13;;
6825;SDS011;3451;52.476;13.316;2024-03-29T11:14:08;2.70;;;1.20;;
6825;SDS011;3451;52.476;13.316;2024-03-29T11:16:35;1.50;;;0.93;;
6825;SDS011;3451;52.476;13.316;2024-03-29T11:19:01;1.73;;;1.00;;
6825;SDS011;3451;52.476;13.316;2024-03-29T11:21:30;2.83;;;1.10;;
6825;SDS011;3451;52.476;13.316;2024-03-29T11:23:56;2.10;;;1.00;;
6825;SDS011;3451;52.476;13.316;2024-03-29T11:26:22;1.33;;;0.90;;
6825;SDS011;3451;52.476;13.316;2024-03-29T11:28:51;1.40;;;0.93;;
6825;SDS011;3451;52.476;13.316;2024-03-29T11:31:16;2.97;;;1.30;;
6825;SDS011;3451;52.476;13.316;2024-03-29T11:38:48;2.00;;;1.00;;
6825;SDS011;3451;52.476;13.316;2024-03-29T11:41:20;2.83;;;1.40;;
6825;SDS011;3451;52.476;13.316;2024-03-29T11:43:52;4.90;;;1.13;;
6825;SDS011;3451;52.476;13.316;2024-03-29T11:46:18;2.43;;;1.17;;
6825;SDS011;3451;52.476;13.316;2024-03-29T11:48:44;1.53;;;0.90;;
6825;SDS011;3451;52.476;13.316;2024-03-29T11:51:14;2.73;;;1.23;;
6825;SDS011;3451;52.476;13.316;2024-03-29T11:53:43;3.53;;;1.17;;
6825;SDS011;3451;52.476;13.316;2024-03-29T11:56:09;1.10;;;0.83;;
6825;SDS011;3451;52.476;13.316;2024-03-29T11:58:36;3.83;;;1.10;;
6825;SDS011;3451;52.476;13.316;2024-03-29T12:01:02;1.37;;;0.90;;
6825;SDS011;3451;52.476;13.316;2024-03-29T12:03:31;1.13;;;0.80;;
6825;SDS011;3451;52.476;13.316;2024-03-29T12:05:57;1.83;;;0.93;;
6825;SDS011;3451;52.476;13.316;2024-03-29T12:08:30;2.77;;;1.00;;
6825;SDS011;3451;52.476;13.316;2024-03-29T12:10:59;0.90;;;0.77;;
6825;SDS011;3451;52.476;13.316;2024-03-29T12:13:25;2.13;;;0.90;;
6825;SDS011;3451;52.476;13.316;2024-03-29T12:15:51;1.53;;;0.87;;
6825;SDS011;3451;52.476;13.316;2024-03-29T12:18:16;3.40;;;0.80;;
6825;SDS011;3451;52.476;13.316;2024-03-29T12:20:44;1.23;;;0.90;;
6825;SDS011;3451;52.476;13.316;2024-03-29T12:23:11;1.53;;;0.93;;
6825;SDS011;3451;52.476;13.316;2024-03-29T12:25:38;1.80;;;0.90;;
6825;SDS011;3451;52.476;13.316;2024-03-29T12:28:04;1.40;;;1.00;;
6825;SDS011;3451;52.476;13.316;2024-03-29T12:30:29;2.80;;;1.10;;
6825;SDS011;3451;52.476;13.316;2024-03-29T12:33:05;1.87;;;1.00;;
6825;SDS011;3451;52.476;13.316;2024-03-29T12:35:34;2.23;;;0.90;;
6825;SDS011;3451;52.476;13.316;2024-03-29T12:38:00;2.97;;;0.97;;
6825;SDS011;3451;52.476;13.316;2024-03-29T12:40:26;2.97;;;1.20;;
6825;SDS011;3451;52.476;13.316;2024-03-29T12:42:53;1.70;;;0.70;;
6825;SDS011;3451;52.476;13.316;2024-03-29T12:45:19;2.07;;;0.90;;
6825;SDS011;3451;52.476;13.316;2024-03-29T12:47:48;1.43;;;0.87;;
6825;SDS011;3451;52.476;13.316;2024-03-29T12:50:24;1.77;;;0.90;;
6825;SDS011;3451;52.476;13.316;2024-03-29T12:52:52;1.67;;;1.10;;
6825;SDS011;3451;52.476;13.316;2024-03-29T12:55:18;1.90;;;0.90;;
6825;SDS011;3451;52.476;13.316;2024-03-29T12:57:44;1.43;;;0.80;;
6825;SDS011;3451;52.476;13.316;2024-03-29T13:00:10;2.37;;;0.90;;
6825;SDS011;3451;52.476;13.316;2024-03-29T13:02:36;2.53;;;0.90;;
6825;SDS011;3451;52.476;13.316;2024-03-29T13:05:02;1.13;;;0.73;;
6825;SDS011;3451;52.476;13.316;2024-03-29T13:07:28;2.60;;;1.00;;
6825;SDS011;3451;52.476;13.316;2024-03-29T13:09:53;2.40;;;1.10;;
6825;SDS011;3451;52.476;13.316;2024-03-29T13:12:18;1.67;;;1.10;;
6825;SDS011;3451;52.476;13.316;2024-03-29T13:14:44;2.40;;;0.93;;
6825;SDS011;3451;52.476;13.316;2024-03-29T13:17:09;2.53;;;1.00;;
6825;SDS011;3451;52.476;13.316;2024-03-29T13:19:35;1.13;;;0.70;;
6825;SDS011;3451;52.476;13.316;2024-03-29T13:22:01;2.73;;;1.07;;
6825;SDS011;3451;52.476;13.316;2024-03-29T13:24:26;1.83;;;0.80;;
6825;SDS011;3451;52.476;13.316;2024-03-29T13:26:53;2.87;;;1.47;;
6825;SDS011;3451;52.476;13.316;2024-03-29T13:29:19;1.40;;;0.87;;
6825;SDS011;3451;52.476;13.316;2024-03-29T13:31:45;2.63;;;0.97;;
6825;SDS011;3451;52.476;13.316;2024-03-29T13:34:10;1.80;;;0.90;;
6825;SDS011;3451;52.476;13.316;2024-03-29T13:36:39;2.60;;;0.90;;
6825;SDS011;3451;52.476;13.316;2024-03-29T13:39:05;1.93;;;1.00;;
6825;SDS011;3451;52.476;13.316;2024-03-29T13:41:30;1.23;;;0.90;;
6825;SDS011;3451;52.476;13.316;2024-03-29T13:43:56;1.87;;;1.00;;
6825;SDS011;3451;52.476;13.316;2024-03-29T13:46:21;1.63;;;0.80;;
6825;SDS011;3451;52.476;13.316;2024-03-29T13:48:47;2.53;;;0.90;;
6825;SDS011;3451;52.476;13.316;2024-03-29T13:51:12;2.40;;;0.90;;
6825;SDS011;3451;52.476;13.316;2024-03-29T13:53:37;4.17;;;1.00;;
6825;SDS011;3451;52.476;13.316;2024-03-29T13:56:03;2.10;;;0.90;;
6825;SDS011;3451;52.476;13.316;2024-03-29T13:58:29;3.23;;;1.00;;
6825;SDS011;3451;52.476;13.316;2024-03-29T14:00:55;1.97;;;1.00;;
6825;SDS011;3451;52.476;13.316;2024-03-29T14:03:21;1.93;;;0.90;;
6825;SDS011;3451;52.476;13.316;2024-03-29T14:05:48;1.30;;;0.87;;
6825;SDS011;3451;52.476;13.316;2024-03-29T14:08:13;3.13;;;0.90;;
6825;SDS011;3451;52.476;13.316;2024-03-29T14:10:39;1.70;;;0.87;;
6825;SDS011;3451;52.476;13.316;2024-03-29T14:13:04;2.23;;;1.10;;
6825;SDS011;3451;52.476;13.316;2024-03-29T14:15:30;1.67;;;0.80;;
6825;SDS011;3451;52.476;13.316;2024-03-29T14:17:55;3.23;;;0.87;;
6825;SDS011;3451;52.476;13.316;2024-03-29T14:20:21;1.70;;;0.90;;
6825;SDS011;3451;52.476;13.316;2024-03-29T14:22:47;1.97;;;1.10;;
6825;SDS011;3451;52.476;13.316;2024-03-29T14:25:16;2.10;;;0.70;;
6825;SDS011;3451;52.476;13.316;2024-03-29T14:27:42;1.97;;;0.90;;
6825;SDS011;3451;52.476;13.316;2024-03-29T14:30:12;1.50;;;1.00;;
6825;SDS011;3451;52.476;13.316;2024-03-29T14:32:38;7.93;;;1.10;;
6825;SDS011;3451;52.476;13.316;2024-03-29T14:35:03;1.43;;;0.87;;
6825;SDS011;3451;52.476;13.316;2024-03-29T14:37:29;6.07;;;1.03;;
6825;SDS011;3451;52.476;13.316;2024-03-29T14:39:55;2.90;;;1.00;;
6825;SDS011;3451;52.476;13.316;2024-03-29T14:42:20;2.77;;;0.90;;
6825;SDS011;3451;52.476;13.316;2024-03-29T14:44:48;1.87;;;0.80;;
6825;SDS011;3451;52.476;13.316;2024-03-29T14:47:13;1.93;;;1.10;;
6825;SDS011;3451;52.476;13.316;2024-03-29T14:49:39;1.43;;;0.80;;
6825;SDS011;3451;52.476;13.316;2024-03-29T14:52:06;1.63;;;0.73;;
6825;SDS011;3451;52.476;13.316;2024-03-29T14:54:32;2.00;;;0.90;;
6825;SDS011;3451;52.476;13.316;2024-03-29T14:56:57;2.33;;;0.70;;
6825;SDS011;3451;52.476;13.316;2024-03-29T14:59:23;1.87;;;0.80;;